Dansville Muni Information

FAA: DSV - ICAO: KDSV

Dansville Muni (Airport) Location

State New York
County Livingston
City Dansville
Dansville Muni (Airport) is 1 mile northwest of Dansville, NY.
Latitude 42-34-13.9130N
Longitude 077-42-47.7820W
Elevation 659ft

Dansville Muni METARs

METAR KDSV 190054Z AUTO 14006KT 10SM OVC040 M06/M11 A3004 RMK AO2 SLP190 T10611106
Altimeter 30.04"
Temperature -6.1°C (21.0°F)
Wind 140° at 6KT
Clouds overcast at 4,000ft
Visibility 10.0mi
Time observed: 2022-01-19T00:54:00Z

Dansville Muni (Airport) Details

Status Operational
Activation April 1941
Ownership Public
Usage Public
Chart DETROIT
ATC on-site No
Beacon schedule sunset-sunrise
Beacon color clear green

Dansville Muni (Airport) Contacts

Owner TOWN OF NORTH DANSVILLE
Owner address TOWN HALL CLARA BARTON ST., DANSVILLE, NY 14437
Owner phone 585-335-2330
Manager STEVEN H. RITCHIE
Manager address 35808 NYS RT 12, CLAYTON, NY 13624
Manager phone 315-777-5868

Dansville Muni Radio Frequencies

Dansville Muni (Airport) Radio Frequencies

UNICOM 123
Common traffic advisory frequency (CTAF) 123